Time,TemperatureF,DewpointF,PressureIn,WindDirection,WindDirectionDegrees,WindSpeedMPH,WindSpeedGustMPH,Humidity,HourlyPrecipIn,Conditions,Clouds,dailyrainin,SoftwareType,DateUTC
2013-05-02 00:01:00,61.5,46.2,30.30,ESE,112,1.6,3.1,57,0.00,,---,0.00,VWS V14.01,2013-05-02 04:01:00,
2013-05-02 00:06:00,61.3,46.0,30.30,ESE,112,2.5,3.1,57,0.00,,---,0.00,VWS V14.01,2013-05-02 04:06:00,
2013-05-02 00:11:00,61.2,45.8,30.30,ESE,112,4.7,4.7,57,0.00,,---,0.00,VWS V14.01,2013-05-02 04:11:00,
2013-05-02 00:16:00,61.0,45.2,30.30,ENE,68,5.6,5.6,56,0.00,,---,0.00,VWS V14.01,2013-05-02 04:16:00,
2013-05-02 00:21:00,60.8,44.5,30.30,ESE,112,2.9,3.4,55,0.00,,---,0.00,VWS V14.01,2013-05-02 04:21:00,
2013-05-02 00:26:00,60.4,44.2,30.30,ESE,112,3.1,3.6,55,0.00,,---,0.00,VWS V14.01,2013-05-02 04:26:00,
2013-05-02 00:31:00,60.4,44.2,30.30,ENE,68,4.3,4.3,55,0.00,,---,0.00,VWS V14.01,2013-05-02 04:31:00,
2013-05-02 00:36:00,60.3,44.0,30.30,ESE,112,3.6,3.8,55,0.00,,---,0.00,VWS V14.01,2013-05-02 04:36:00,
2013-05-02 00:41:00,60.1,43.9,30.30,ESE,112,3.1,3.1,55,0.00,,---,0.00,VWS V14.01,2013-05-02 04:41:00,
2013-05-02 00:46:00,59.9,43.2,30.30,SE,135,3.6,4.0,54,0.00,,---,0.00,VWS V14.01,2013-05-02 04:46:00,
2013-05-02 00:51:00,59.7,43.1,30.30,ESE,112,2.5,3.1,54,0.00,,---,0.00,VWS V14.01,2013-05-02 04:51:00,
2013-05-02 00:56:00,59.5,42.4,30.30,ESE,112,2.7,2.7,53,0.00,,---,0.00,VWS V14.01,2013-05-02 04:56:00,
2013-05-02 01:00:00,59.4,42.2,30.30,SE,135,4.7,4.7,53,0.00,,---,0.00,VWS V14.01,2013-05-02 05:00:00,
2013-05-02 01:05:00,59.4,42.2,30.30,SSE,158,2.2,2.2,53,0.00,,---,0.00,VWS V14.01,2013-05-02 05:05:00,
2013-05-02 01:10:00,59.2,42.1,30.30,ESE,112,3.8,3.8,53,0.00,,---,0.00,VWS V14.01,2013-05-02 05:10:00,
2013-05-02 01:15:00,59.0,41.9,30.30,SE,135,3.1,3.6,53,0.00,,---,0.00,VWS V14.01,2013-05-02 05:15:00,
2013-05-02 01:20:00,58.8,42.2,30.30,ENE,68,3.1,3.1,54,0.00,,---,0.00,VWS V14.01,2013-05-02 05:20:00,
2013-05-02 01:25:00,58.6,42.1,30.30,ESE,112,2.5,3.4,54,0.00,,---,0.00,VWS V14.01,2013-05-02 05:25:00,
2013-05-02 01:30:00,58.6,42.1,30.33,ESE,112,2.5,3.8,54,0.00,,---,0.00,VWS V14.01,2013-05-02 05:30:00,
2013-05-02 01:35:00,58.5,41.9,30.33,NE,45,3.1,3.6,54,0.00,,---,0.00,VWS V14.01,2013-05-02 05:35:00,
2013-05-02 01:40:00,58.3,41.7,30.33,ESE,112,2.9,3.6,54,0.00,,---,0.00,VWS V14.01,2013-05-02 05:40:00,
2013-05-02 01:45:00,58.1,42.0,30.30,East,90,2.7,4.0,55,0.00,,---,0.00,VWS V14.01,2013-05-02 05:45:00,
2013-05-02 01:50:00,57.9,41.9,30.30,East,90,3.8,3.8,55,0.00,,---,0.00,VWS V14.01,2013-05-02 05:50:00,
2013-05-02 01:55:00,57.9,41.9,30.30,East,90,3.6,3.6,55,0.00,,---,0.00,VWS V14.01,2013-05-02 05:55:00,
2013-05-02 02:00:00,57.9,41.4,30.30,SE,135,3.8,3.8,54,0.00,,---,0.00,VWS V14.01,2013-05-02 06:00:00,
2013-05-02 02:05:00,57.7,41.7,30.30,ESE,112,3.6,3.6,55,0.00,,---,0.00,VWS V14.01,2013-05-02 06:05:00,
2013-05-02 02:10:00,57.6,41.5,30.30,SE,135,1.6,3.6,55,0.00,,---,0.00,VWS V14.01,2013-05-02 06:10:00,
2013-05-02 02:15:00,57.6,41.5,30.30,East,90,2.5,4.3,55,0.00,,---,0.00,VWS V14.01,2013-05-02 06:15:00,
2013-05-02 02:20:00,57.6,41.5,30.30,NNE,22,3.4,3.4,55,0.00,,---,0.00,VWS V14.01,2013-05-02 06:20:00,
2013-05-02 02:25:00,57.6,41.5,30.30,SSE,158,2.5,3.6,55,0.00,,---,0.00,VWS V14.01,2013-05-02 06:25:00,
2013-05-02 02:30:00,57.4,41.4,30.30,NE,45,4.7,4.7,55,0.00,,---,0.00,VWS V14.01,2013-05-02 06:30:00,
2013-05-02 02:35:00,57.0,41.5,30.30,SE,135,4.3,4.3,56,0.00,,---,0.00,VWS V14.01,2013-05-02 06:35:00,
2013-05-02 02:40:00,57.2,41.7,30.30,ESE,112,2.5,3.6,56,0.00,,---,0.00,VWS V14.01,2013-05-02 06:40:00,
2013-05-02 02:45:00,56.8,41.3,30.30,ESE,112,3.1,3.4,56,0.00,,---,0.00,VWS V14.01,2013-05-02 06:45:00,
2013-05-02 02:50:00,56.8,41.3,30.30,SE,135,2.5,3.6,56,0.00,,---,0.00,VWS V14.01,2013-05-02 06:50:00,
2013-05-02 02:55:00,56.7,41.2,30.30,ENE,68,3.4,3.4,56,0.00,,---,0.00,VWS V14.01,2013-05-02 06:55:00,
2013-05-02 03:00:00,56.7,41.6,30.30,ENE,68,3.6,3.6,57,0.00,,---,0.00,VWS V14.01,2013-05-02 07:00:00,
2013-05-02 03:05:00,56.7,41.6,30.30,WNW,292,1.3,1.3,57,0.00,,---,0.00,VWS V14.01,2013-05-02 07:05:00,
2013-05-02 03:10:00,56.7,41.6,30.30,NE,45,2.9,2.9,57,0.00,,---,0.00,VWS V14.01,2013-05-02 07:10:00,
2013-05-02 03:15:00,56.5,41.5,30.30,ESE,112,3.4,3.4,57,0.00,,---,0.00,VWS V14.01,2013-05-02 07:15:00,
2013-05-02 03:20:00,56.5,41.5,30.30,ESE,112,3.1,4.3,57,0.00,,---,0.00,VWS V14.01,2013-05-02 07:20:00,
2013-05-02 03:25:00,56.3,41.3,30.30,ESE,112,1.6,2.9,57,0.00,,---,0.00,VWS V14.01,2013-05-02 07:25:00,
2013-05-02 03:30:00,56.3,41.7,30.27,ESE,112,2.2,3.4,58,0.00,,---,0.00,VWS V14.01,2013-05-02 07:30:00,
2013-05-02 03:35:00,56.3,41.7,30.27,ESE,112,2.2,2.2,58,0.00,,---,0.00,VWS V14.01,2013-05-02 07:35:00,
2013-05-02 03:40:00,56.1,41.1,30.27,ESE,112,2.0,2.0,57,0.00,,---,0.00,VWS V14.01,2013-05-02 07:40:00,
2013-05-02 03:45:00,56.1,41.6,30.27,East,90,3.1,3.1,58,0.00,,---,0.00,VWS V14.01,2013-05-02 07:45:00,
2013-05-02 03:50:00,55.9,41.4,30.27,ESE,112,3.6,3.6,58,0.00,,---,0.00,VWS V14.01,2013-05-02 07:50:00,
2013-05-02 03:55:00,55.9,41.4,30.27,ESE,112,1.6,2.2,58,0.00,,---,0.00,VWS V14.01,2013-05-02 07:55:00,
2013-05-02 04:00:00,55.6,41.0,30.27,ESE,112,2.0,2.9,58,0.00,,---,0.00,VWS V14.01,2013-05-02 08:00:00,
2013-05-02 04:05:00,55.6,41.0,30.27,ESE,112,2.0,2.7,58,0.00,,---,0.00,VWS V14.01,2013-05-02 08:05:00,
2013-05-02 04:10:00,55.2,41.2,30.27,ENE,68,2.5,2.9,59,0.00,,---,0.00,VWS V14.01,2013-05-02 08:10:00,
2013-05-02 04:15:00,55.2,41.2,30.30,ENE,68,4.3,4.3,59,0.00,,---,0.00,VWS V14.01,2013-05-02 08:15:00,
2013-05-02 04:20:00,55.2,41.6,30.30,SE,135,2.9,3.1,60,0.00,,---,0.00,VWS V14.01,2013-05-02 08:20:00,
2013-05-02 04:25:00,55.2,41.6,30.30,South,180,2.2,2.2,60,0.00,,---,0.00,VWS V14.01,2013-05-02 08:25:00,
2013-05-02 04:30:00,55.0,41.4,30.27,ESE,112,3.4,3.4,60,0.00,,---,0.00,VWS V14.01,2013-05-02 08:30:00,
2013-05-02 04:35:00,55.0,41.4,30.27,ESE,112,2.7,3.8,60,0.00,,---,0.00,VWS V14.01,2013-05-02 08:35:00,
2013-05-02 04:40:00,54.9,41.2,30.27,ESE,112,3.6,3.6,60,0.00,,---,0.00,VWS V14.01,2013-05-02 08:40:00,
2013-05-02 04:45:00,54.9,41.7,30.30,ENE,68,3.1,3.1,61,0.00,,---,0.00,VWS V14.01,2013-05-02 08:45:00,
2013-05-02 04:50:00,54.9,41.7,30.30,ENE,68,3.4,4.0,61,0.00,,---,0.00,VWS V14.01,2013-05-02 08:50:00,
2013-05-02 04:55:00,54.9,41.7,30.30,East,90,2.9,2.9,61,0.00,,---,0.00,VWS V14.01,2013-05-02 08:55:00,
2013-05-02 05:00:00,54.9,41.7,30.27,ESE,112,3.6,3.6,61,0.00,,---,0.00,VWS V14.01,2013-05-02 09:00:00,
2013-05-02 05:05:00,54.9,41.7,30.27,SE,135,4.0,4.0,61,0.00,,---,0.00,VWS V14.01,2013-05-02 09:05:00,
2013-05-02 05:10:00,54.9,41.7,30.27,SE,135,2.9,2.9,61,0.00,,---,0.00,VWS V14.01,2013-05-02 09:10:00,
2013-05-02 05:15:00,54.7,41.5,30.27,ESE,112,3.4,3.4,61,0.00,,---,0.00,VWS V14.01,2013-05-02 09:15:00,
2013-05-02 05:20:00,54.9,41.7,30.27,ESE,112,3.6,3.6,61,0.00,,---,0.00,VWS V14.01,2013-05-02 09:20:00,
2013-05-02 05:25:00,54.9,41.7,30.27,NNE,22,3.6,3.6,61,0.00,,---,0.00,VWS V14.01,2013-05-02 09:25:00,
2013-05-02 05:30:00,54.9,41.7,30.27,ESE,112,2.0,2.9,61,0.00,,---,0.00,VWS V14.01,2013-05-02 09:30:00,
2013-05-02 05:35:00,54.9,41.7,30.27,SE,135,3.6,4.0,61,0.00,,---,0.00,VWS V14.01,2013-05-02 09:35:00,
2013-05-02 05:40:00,54.9,41.7,30.27,SE,135,3.4,3.4,61,0.00,,---,0.00,VWS V14.01,2013-05-02 09:40:00,
2013-05-02 05:45:00,54.9,41.7,30.30,SSE,158,3.6,3.6,61,0.00,,---,0.00,VWS V14.01,2013-05-02 09:45:00,
2013-05-02 05:50:00,54.9,41.7,30.30,ESE,112,2.9,2.9,61,0.00,,---,0.00,VWS V14.01,2013-05-02 09:50:00,
2013-05-02 05:55:00,54.7,41.5,30.30,ESE,112,3.6,3.6,61,0.00,,---,0.00,VWS V14.01,2013-05-02 09:55:00,
2013-05-02 06:00:00,54.9,41.7,30.27,SE,135,3.4,3.4,61,0.00,,---,0.00,VWS V14.01,2013-05-02 10:00:00,
2013-05-02 06:05:00,54.7,41.5,30.27,SE,135,3.6,3.6,61,0.00,,---,0.00,VWS V14.01,2013-05-02 10:05:00,
2013-05-02 06:10:00,54.5,40.9,30.27,ESE,112,3.4,3.4,60,0.00,,---,0.00,VWS V14.01,2013-05-02 10:10:00,
2013-05-02 06:15:00,54.5,41.3,30.30,ESE,112,3.6,3.6,61,0.00,,---,0.00,VWS V14.01,2013-05-02 10:15:00,
2013-05-02 06:20:00,54.3,41.2,30.30,ESE,112,3.6,4.3,61,0.00,,---,0.00,VWS V14.01,2013-05-02 10:20:00,
2013-05-02 06:25:00,54.3,41.2,30.30,ESE,112,3.6,4.0,61,0.00,,---,0.00,VWS V14.01,2013-05-02 10:25:00,
2013-05-02 06:30:00,54.3,41.2,30.30,ENE,68,2.5,2.5,61,0.00,,---,0.00,VWS V14.01,2013-05-02 10:30:00,
2013-05-02 06:35:00,54.3,41.2,30.30,SSE,158,2.7,2.7,61,0.00,,---,0.00,VWS V14.01,2013-05-02 10:35:00,
2013-05-02 06:40:00,54.3,41.2,30.30,ESE,112,2.5,2.9,61,0.00,,---,0.00,VWS V14.01,2013-05-02 10:40:00,
2013-05-02 06:45:00,54.3,41.2,30.30,SE,135,3.6,3.6,61,0.00,,---,0.00,VWS V14.01,2013-05-02 10:45:00,
2013-05-02 06:49:00,54.3,41.2,30.30,ENE,68,4.3,4.3,61,0.00,,---,0.00,VWS V14.01,2013-05-02 10:49:00,
2013-05-02 06:54:00,54.3,41.2,30.30,ESE,112,3.1,3.1,61,0.00,,---,0.00,VWS V14.01,2013-05-02 10:54:00,
2013-05-02 06:59:00,54.3,41.2,30.30,ESE,112,2.0,2.0,61,0.00,,---,0.00,VWS V14.01,2013-05-02 10:59:00,
2013-05-02 07:04:00,54.5,41.3,30.30,ESE,112,3.6,4.3,61,0.00,,---,0.00,VWS V14.01,2013-05-02 11:04:00,
2013-05-02 07:09:00,54.5,40.9,30.30,ESE,112,4.0,4.0,60,0.00,,---,0.00,VWS V14.01,2013-05-02 11:09:00,
2013-05-02 07:14:00,54.9,41.2,30.30,SE,135,2.9,2.9,60,0.00,,---,0.00,VWS V14.01,2013-05-02 11:14:00,
2013-05-02 07:19:00,55.0,41.4,30.30,ESE,112,3.6,4.0,60,0.00,,---,0.00,VWS V14.01,2013-05-02 11:19:00,
2013-05-02 07:24:00,55.4,41.3,30.30,ESE,112,4.0,4.0,59,0.00,,---,0.00,VWS V14.01,2013-05-02 11:24:00,
2013-05-02 07:29:00,55.8,41.7,30.30,ESE,112,3.4,5.4,59,0.00,,---,0.00,VWS V14.01,2013-05-02 11:29:00,
2013-05-02 07:34:00,56.1,42.0,30.30,ENE,68,1.1,3.8,59,0.00,,---,0.00,VWS V14.01,2013-05-02 11:34:00,
2013-05-02 07:39:00,56.5,41.9,30.30,ESE,112,6.0,6.0,58,0.00,,---,0.00,VWS V14.01,2013-05-02 11:39:00,
2013-05-02 07:44:00,56.7,41.6,30.30,SSE,158,2.5,3.8,57,0.00,,---,0.00,VWS V14.01,2013-05-02 11:44:00,
2013-05-02 07:49:00,57.2,41.2,30.30,SE,135,3.1,4.3,55,0.00,,---,0.00,VWS V14.01,2013-05-02 11:49:00,
2013-05-02 07:54:00,57.6,42.0,30.30,ESE,112,4.7,4.7,56,0.00,,---,0.00,VWS V14.01,2013-05-02 11:54:00,
2013-05-02 07:59:00,58.1,41.6,30.30,ESE,112,4.3,6.0,54,0.00,,---,0.00,VWS V14.01,2013-05-02 11:59:00,
2013-05-02 08:04:00,58.5,41.4,30.30,ENE,68,3.6,5.8,53,0.00,,---,0.00,VWS V14.01,2013-05-02 12:04:00,
2013-05-02 08:09:00,60.1,41.9,30.30,SSE,158,2.9,3.6,51,0.00,,---,0.00,VWS V14.01,2013-05-02 12:09:00,
2013-05-02 08:14:00,60.6,41.4,30.27,East,90,3.8,3.8,49,0.00,,---,0.00,VWS V14.01,2013-05-02 12:14:00,
2013-05-02 08:19:00,60.8,40.5,30.27,ESE,112,3.4,3.8,47,0.00,,---,0.00,VWS V14.01,2013-05-02 12:19:00,
2013-05-02 08:24:00,61.0,40.1,30.27,ENE,68,5.8,5.8,46,0.00,,---,0.00,VWS V14.01,2013-05-02 12:24:00,
2013-05-02 08:29:00,61.2,40.2,30.30,ESE,112,2.9,3.4,46,0.00,,---,0.00,VWS V14.01,2013-05-02 12:29:00,
2013-05-02 08:34:00,61.9,40.9,30.30,SSE,158,3.6,3.6,46,0.00,,---,0.00,VWS V14.01,2013-05-02 12:34:00,
2013-05-02 08:39:00,63.3,41.6,30.30,SSE,158,3.8,3.8,45,0.00,,---,0.00,VWS V14.01,2013-05-02 12:39:00,
2013-05-02 08:44:00,64.8,41.8,30.30,East,90,1.6,3.6,43,0.00,,---,0.00,VWS V14.01,2013-05-02 12:44:00,
2013-05-02 08:49:00,65.7,42.0,30.30,ENE,68,3.6,3.8,42,0.00,,---,0.00,VWS V14.01,2013-05-02 12:49:00,
2013-05-02 08:54:00,66.6,41.5,30.30,SSE,158,5.4,5.4,40,0.00,,---,0.00,VWS V14.01,2013-05-02 12:54:00,
2013-05-02 08:59:00,66.9,40.5,30.30,ESE,112,2.5,5.6,38,0.00,,---,0.00,VWS V14.01,2013-05-02 12:59:00,
2013-05-02 09:04:00,67.8,39.9,30.30,ESE,112,4.0,6.3,36,0.00,,---,0.00,VWS V14.01,2013-05-02 13:04:00,
2013-05-02 09:09:00,67.8,39.9,30.30,ENE,68,5.6,6.3,36,0.00,,---,0.00,VWS V14.01,2013-05-02 13:09:00,
2013-05-02 09:14:00,67.6,39.8,30.30,ESE,112,3.4,6.5,36,0.00,,---,0.00,VWS V14.01,2013-05-02 13:14:00,
2013-05-02 09:19:00,67.8,39.9,30.30,ESE,112,2.9,6.5,36,0.00,,---,0.00,VWS V14.01,2013-05-02 13:19:00,
2013-05-02 09:24:00,68.5,39.1,30.30,SE,135,5.8,6.3,34,0.00,,---,0.00,VWS V14.01,2013-05-02 13:24:00,
2013-05-02 09:29:00,69.3,40.5,30.30,SSE,158,5.6,5.6,35,0.00,,---,0.00,VWS V14.01,2013-05-02 13:29:00,
2013-05-02 09:34:00,69.6,40.0,30.30,ESE,112,2.0,4.3,34,0.00,,---,0.00,VWS V14.01,2013-05-02 13:34:00,
2013-05-02 09:39:00,69.1,39.6,30.30,ENE,68,6.5,6.5,34,0.00,,---,0.00,VWS V14.01,2013-05-02 13:39:00,
2013-05-02 09:44:00,68.9,39.4,30.30,ESE,112,5.4,5.8,34,0.00,,---,0.00,VWS V14.01,2013-05-02 13:44:00,
2013-05-02 09:49:00,68.7,39.2,30.30,NNE,22,5.4,5.4,34,0.00,,---,0.00,VWS V14.01,2013-05-02 13:49:00,
2013-05-02 09:54:00,68.5,39.1,30.30,SE,135,4.7,4.7,34,0.00,,---,0.00,VWS V14.01,2013-05-02 13:54:00,
2013-05-02 09:59:00,68.5,39.1,30.27,ENE,68,0.9,3.1,34,0.00,,---,0.00,VWS V14.01,2013-05-02 13:59:00,
2013-05-02 10:04:00,68.7,39.2,30.27,SSE,158,3.6,3.8,34,0.00,,---,0.00,VWS V14.01,2013-05-02 14:04:00,
2013-05-02 10:09:00,68.7,39.2,30.27,ESE,112,5.4,6.0,34,0.00,,---,0.00,VWS V14.01,2013-05-02 14:09:00,
2013-05-02 10:14:00,68.5,39.1,30.27,ESE,112,2.5,4.7,34,0.00,,---,0.00,VWS V14.01,2013-05-02 14:14:00,
2013-05-02 10:19:00,68.9,39.4,30.27,SSE,158,3.8,5.8,34,0.00,,---,0.00,VWS V14.01,2013-05-02 14:19:00,
2013-05-02 10:24:00,68.9,39.4,30.27,SSE,158,3.4,5.6,34,0.00,,---,0.00,VWS V14.01,2013-05-02 14:24:00,
2013-05-02 10:29:00,69.1,39.6,30.24,SE,135,4.9,7.6,34,0.00,,---,0.00,VWS V14.01,2013-05-02 14:29:00,
2013-05-02 10:34:00,69.4,39.9,30.24,SSE,158,3.4,3.8,34,0.00,,---,0.00,VWS V14.01,2013-05-02 14:34:00,
2013-05-02 10:39:00,70.0,40.3,30.24,SE,135,4.0,6.0,34,0.00,,---,0.00,VWS V14.01,2013-05-02 14:39:00,
2013-05-02 10:44:00,70.3,40.7,30.27,SSW,202,4.3,5.4,34,0.00,,---,0.00,VWS V14.01,2013-05-02 14:44:00,
2013-05-02 10:49:00,71.2,41.5,30.27,ENE,68,6.0,7.8,34,0.00,,---,0.00,VWS V14.01,2013-05-02 14:49:00,
2013-05-02 10:54:00,72.7,42.0,30.27,SE,135,6.0,6.0,33,0.00,,---,0.00,VWS V14.01,2013-05-02 14:54:00,
2013-05-02 10:59:00,74.5,42.7,30.24,SSE,158,3.6,3.8,32,0.00,,---,0.00,VWS V14.01,2013-05-02 14:59:00,
2013-05-02 11:04:00,76.1,44.1,30.24,SSW,202,2.7,2.9,32,0.00,,---,0.00,VWS V14.01,2013-05-02 15:04:00,
2013-05-02 11:09:00,77.7,44.7,30.24,SE,135,3.8,3.8,31,0.00,,---,0.00,VWS V14.01,2013-05-02 15:09:00,
2013-05-02 11:14:00,78.1,44.2,30.24,ESE,112,4.3,4.9,30,0.00,,---,0.00,VWS V14.01,2013-05-02 15:14:00,
2013-05-02 11:19:00,77.9,44.0,30.24,ESE,112,2.9,2.9,30,0.00,,---,0.00,VWS V14.01,2013-05-02 15:19:00,
2013-05-02 11:24:00,77.7,43.8,30.24,NNE,22,5.4,5.8,30,0.00,,---,0.00,VWS V14.01,2013-05-02 15:24:00,
2013-05-02 11:29:00,77.4,42.7,30.24,NNW,338,2.5,3.1,29,0.00,,---,0.00,VWS V14.01,2013-05-02 15:29:00,
2013-05-02 11:34:00,78.6,44.6,30.24,ENE,68,3.1,3.6,30,0.00,,---,0.00,VWS V14.01,2013-05-02 15:34:00,
2013-05-02 11:39:00,79.2,43.3,30.24,SE,135,3.8,3.8,28,0.00,,---,0.00,VWS V14.01,2013-05-02 15:39:00,
2013-05-02 11:44:00,79.9,43.0,30.24,SSE,158,4.9,4.9,27,0.00,,---,0.00,VWS V14.01,2013-05-02 15:44:00,
2013-05-02 11:49:00,80.2,43.3,30.24,SSW,202,7.4,7.4,27,0.00,,---,0.00,VWS V14.01,2013-05-02 15:49:00,
2013-05-02 11:54:00,80.8,43.7,30.24,East,90,2.9,3.8,27,0.00,,---,0.00,VWS V14.01,2013-05-02 15:54:00,
2013-05-02 11:59:00,81.0,42.9,30.21,SE,135,7.8,7.8,26,0.00,,---,0.00,VWS V14.01,2013-05-02 15:59:00,
2013-05-02 12:04:00,80.6,42.6,30.21,ENE,68,5.6,7.8,26,0.00,,---,0.00,VWS V14.01,2013-05-02 16:04:00,
2013-05-02 12:09:00,80.6,42.6,30.21,ENE,68,4.7,7.4,26,0.00,,---,0.00,VWS V14.01,2013-05-02 16:09:00,
2013-05-02 12:14:00,81.0,42.9,30.21,ESE,112,3.6,3.6,26,0.00,,---,0.00,VWS V14.01,2013-05-02 16:14:00,
2013-05-02 12:19:00,80.1,41.1,30.21,NE,45,2.5,4.0,25,0.00,,---,0.00,VWS V14.01,2013-05-02 16:19:00,
2013-05-02 12:24:00,79.9,42.0,30.21,ESE,112,5.4,5.4,26,0.00,,---,0.00,VWS V14.01,2013-05-02 16:24:00,
2013-05-02 12:29:00,80.1,42.1,30.24,ENE,68,2.7,2.7,26,0.00,,---,0.00,VWS V14.01,2013-05-02 16:29:00,
2013-05-02 12:34:00,80.1,43.1,30.24,SSE,158,4.3,4.3,27,0.00,,---,0.00,VWS V14.01,2013-05-02 16:34:00,
2013-05-02 12:39:00,80.4,42.4,30.24,NNE,22,2.9,2.9,26,0.00,,---,0.00,VWS V14.01,2013-05-02 16:39:00,
2013-05-02 12:44:00,80.4,42.4,30.24,NNE,22,4.5,6.5,26,0.00,,---,0.00,VWS V14.01,2013-05-02 16:44:00,
2013-05-02 12:49:00,80.1,43.1,30.24,SE,135,6.5,6.5,27,0.00,,---,0.00,VWS V14.01,2013-05-02 16:49:00,
2013-05-02 12:53:00,80.8,42.7,30.24,SSE,158,4.0,4.0,26,0.00,,---,0.00,VWS V14.01,2013-05-02 16:53:00,
2013-05-02 12:58:00,81.1,43.0,30.24,ESE,112,3.6,6.0,26,0.00,,---,0.00,VWS V14.01,2013-05-02 16:58:00,
2013-05-02 13:03:00,82.0,43.8,30.24,NNW,338,1.3,1.3,26,0.00,,---,0.00,VWS V14.01,2013-05-02 17:03:00,
2013-05-02 13:08:00,83.1,43.7,30.24,ENE,68,2.7,4.9,25,0.00,,---,0.00,VWS V14.01,2013-05-02 17:08:00,
2013-05-02 13:13:00,83.3,43.8,30.24,ESE,112,2.5,2.5,25,0.00,,---,0.00,VWS V14.01,2013-05-02 17:13:00,
2013-05-02 13:18:00,84.2,44.6,30.24,SE,135,4.9,6.3,25,0.00,,---,0.00,VWS V14.01,2013-05-02 17:18:00,
2013-05-02 13:23:00,85.1,44.3,30.24,SE,135,4.9,7.2,24,0.00,,---,0.00,VWS V14.01,2013-05-02 17:23:00,
2013-05-02 13:28:00,86.2,44.1,30.24,SSW,202,1.1,3.6,23,0.00,,---,0.00,VWS V14.01,2013-05-02 17:28:00,
2013-05-02 13:33:00,86.5,44.4,30.24,SE,135,2.7,2.7,23,0.00,,---,0.00,VWS V14.01,2013-05-02 17:33:00,
2013-05-02 13:38:00,86.9,44.7,30.24,WSW,248,4.3,5.6,23,0.00,,---,0.00,VWS V14.01,2013-05-02 17:38:00,
2013-05-02 13:43:00,87.6,45.3,30.24,ENE,68,5.6,5.6,23,0.00,,---,0.00,VWS V14.01,2013-05-02 17:43:00,
2013-05-02 13:48:00,87.1,43.7,30.24,SE,135,2.5,4.9,22,0.00,,---,0.00,VWS V14.01,2013-05-02 17:48:00,
2013-05-02 13:53:00,87.4,44.0,30.24,ENE,68,5.8,5.8,22,0.00,,---,0.00,VWS V14.01,2013-05-02 17:53:00,
2013-05-02 13:58:00,88.2,43.3,30.24,ENE,68,3.8,5.6,21,0.00,,---,0.00,VWS V14.01,2013-05-02 17:58:00,
2013-05-02 14:03:00,88.5,44.9,30.24,ESE,112,3.6,7.4,22,0.00,,---,0.00,VWS V14.01,2013-05-02 18:03:00,
2013-05-02 14:08:00,88.7,43.8,30.24,SSE,158,6.0,7.6,21,0.00,,---,0.00,VWS V14.01,2013-05-02 18:08:00,
2013-05-02 14:13:00,89.4,44.4,30.24,SE,135,7.6,7.6,21,0.00,,---,0.00,VWS V14.01,2013-05-02 18:13:00,
2013-05-02 14:18:00,88.9,43.9,30.24,SSW,202,6.5,6.5,21,0.00,,---,0.00,VWS V14.01,2013-05-02 18:18:00,
2013-05-02 14:23:00,87.4,42.8,30.24,ESE,112,5.4,6.5,21,0.00,,---,0.00,VWS V14.01,2013-05-02 18:23:00,
2013-05-02 14:28:00,85.3,41.0,30.24,ESE,112,7.4,7.4,21,0.00,,---,0.00,VWS V14.01,2013-05-02 18:28:00,
2013-05-02 14:33:00,83.7,40.8,30.24,SSE,158,8.7,8.7,22,0.00,,---,0.00,VWS V14.01,2013-05-02 18:33:00,
2013-05-02 14:38:00,82.8,40.1,30.24,ESE,112,6.0,6.0,22,0.00,,---,0.00,VWS V14.01,2013-05-02 18:38:00,
2013-05-02 14:43:00,81.7,40.3,30.24,ENE,68,6.3,6.5,23,0.00,,---,0.00,VWS V14.01,2013-05-02 18:43:00,
2013-05-02 14:48:00,81.7,40.3,30.24,SSW,202,5.8,5.8,23,0.00,,---,0.00,VWS V14.01,2013-05-02 18:48:00,
2013-05-02 14:53:00,81.0,40.8,30.24,SSW,202,3.1,3.8,24,0.00,,---,0.00,VWS V14.01,2013-05-02 18:53:00,
2013-05-02 14:58:00,80.8,40.7,30.24,ENE,68,7.4,7.4,24,0.00,,---,0.00,VWS V14.01,2013-05-02 18:58:00,
2013-05-02 15:03:00,79.9,39.9,30.24,East,90,2.7,3.6,24,0.00,,---,0.00,VWS V14.01,2013-05-02 19:03:00,
2013-05-02 15:08:00,79.3,39.5,30.24,SSE,158,2.7,5.6,24,0.00,,---,0.00,VWS V14.01,2013-05-02 19:08:00,
2013-05-02 15:13:00,79.2,40.3,30.24,ENE,68,6.5,8.5,25,0.00,,---,0.00,VWS V14.01,2013-05-02 19:13:00,
2013-05-02 15:18:00,78.6,39.9,30.24,NNE,22,2.7,5.4,25,0.00,,---,0.00,VWS V14.01,2013-05-02 19:18:00,
2013-05-02 15:23:00,78.8,40.0,30.24,SSE,158,2.9,4.3,25,0.00,,---,0.00,VWS V14.01,2013-05-02 19:23:00,
2013-05-02 15:28:00,78.4,40.8,30.24,SW,225,2.7,4.3,26,0.00,,---,0.00,VWS V14.01,2013-05-02 19:28:00,
2013-05-02 15:33:00,78.4,40.8,30.24,ENE,68,7.2,7.8,26,0.00,,---,0.00,VWS V14.01,2013-05-02 19:33:00,
2013-05-02 15:38:00,78.6,40.9,30.24,SSE,158,4.3,4.3,26,0.00,,---,0.00,VWS V14.01,2013-05-02 19:38:00,
2013-05-02 15:43:00,78.4,40.8,30.24,SE,135,8.5,8.5,26,0.00,,---,0.00,VWS V14.01,2013-05-02 19:43:00,
2013-05-02 15:48:00,78.3,40.6,30.24,SSE,158,4.3,4.3,26,0.00,,---,0.00,VWS V14.01,2013-05-02 19:48:00,
2013-05-02 15:53:00,77.2,39.7,30.24,SSE,158,4.9,6.3,26,0.00,,---,0.00,VWS V14.01,2013-05-02 19:53:00,
2013-05-02 15:58:00,77.0,39.5,30.24,SE,135,4.0,7.4,26,0.00,,---,0.00,VWS V14.01,2013-05-02 19:58:00,
2013-05-02 16:03:00,77.0,39.5,30.24,SSW,202,4.7,6.3,26,0.00,,---,0.00,VWS V14.01,2013-05-02 20:03:00,
2013-05-02 16:08:00,76.8,39.4,30.24,SSE,158,4.9,6.5,26,0.00,,---,0.00,VWS V14.01,2013-05-02 20:08:00,
2013-05-02 16:13:00,76.8,40.3,30.21,ESE,112,4.3,10.1,27,0.00,,---,0.00,VWS V14.01,2013-05-02 20:13:00,
2013-05-02 16:18:00,76.5,39.1,30.21,ENE,68,6.5,6.5,26,0.00,,---,0.00,VWS V14.01,2013-05-02 20:18:00,
2013-05-02 16:23:00,76.3,38.9,30.21,ESE,112,3.4,5.8,26,0.00,,---,0.00,VWS V14.01,2013-05-02 20:23:00,
2013-05-02 16:28:00,76.3,38.9,30.21,SE,135,3.8,4.7,26,0.00,,---,0.00,VWS V14.01,2013-05-02 20:28:00,
2013-05-02 16:33:00,76.3,39.9,30.21,SSE,158,2.9,6.0,27,0.00,,---,0.00,VWS V14.01,2013-05-02 20:33:00,
2013-05-02 16:38:00,76.3,39.9,30.21,SSE,158,7.4,8.5,27,0.00,,---,0.00,VWS V14.01,2013-05-02 20:38:00,
2013-05-02 16:43:00,76.5,39.1,30.21,South,180,6.5,6.5,26,0.00,,---,0.00,VWS V14.01,2013-05-02 20:43:00,
2013-05-02 16:48:00,76.6,40.2,30.21,SSW,202,4.3,5.4,27,0.00,,---,0.00,VWS V14.01,2013-05-02 20:48:00,
2013-05-02 16:53:00,76.3,38.9,30.21,SW,225,5.8,5.8,26,0.00,,---,0.00,VWS V14.01,2013-05-02 20:53:00,
2013-05-02 16:58:00,76.1,38.8,30.21,NE,45,6.5,6.5,26,0.00,,---,0.00,VWS V14.01,2013-05-02 20:58:00,
2013-05-02 17:03:00,75.9,38.6,30.21,South,180,5.4,7.4,26,0.00,,---,0.00,VWS V14.01,2013-05-02 21:03:00,
2013-05-02 17:08:00,75.9,38.6,30.21,SE,135,4.0,4.0,26,0.00,,---,0.00,VWS V14.01,2013-05-02 21:08:00,
2013-05-02 17:13:00,75.9,39.6,30.21,SSE,158,3.4,3.8,27,0.00,,---,0.00,VWS V14.01,2013-05-02 21:13:00,
2013-05-02 17:18:00,76.1,39.7,30.21,ENE,68,8.1,8.1,27,0.00,,---,0.00,VWS V14.01,2013-05-02 21:18:00,
2013-05-02 17:23:00,75.7,39.4,30.21,SE,135,7.6,7.6,27,0.00,,---,0.00,VWS V14.01,2013-05-02 21:23:00,
2013-05-02 17:28:00,75.4,38.2,30.21,SSW,202,4.0,7.6,26,0.00,,---,0.00,VWS V14.01,2013-05-02 21:28:00,
2013-05-02 17:33:00,75.2,38.0,30.21,NE,45,7.2,7.2,26,0.00,,---,0.00,VWS V14.01,2013-05-02 21:33:00,
2013-05-02 17:38:00,75.2,39.0,30.21,SSE,158,4.7,8.7,27,0.00,,---,0.00,VWS V14.01,2013-05-02 21:38:00,
2013-05-02 17:43:00,74.8,39.6,30.21,NE,45,4.3,4.3,28,0.00,,---,0.00,VWS V14.01,2013-05-02 21:43:00,
2013-05-02 17:48:00,74.8,39.6,30.21,ENE,68,8.5,8.5,28,0.00,,---,0.00,VWS V14.01,2013-05-02 21:48:00,
2013-05-02 17:53:00,74.7,39.4,30.21,ENE,68,4.7,6.3,28,0.00,,---,0.00,VWS V14.01,2013-05-02 21:53:00,
2013-05-02 17:58:00,74.5,39.3,30.21,ENE,68,7.6,7.6,28,0.00,,---,0.00,VWS V14.01,2013-05-02 21:58:00,
2013-05-02 18:03:00,74.1,39.9,30.21,ENE,68,4.5,4.5,29,0.00,,---,0.00,VWS V14.01,2013-05-02 22:03:00,
2013-05-02 18:08:00,73.9,39.7,30.21,ENE,68,6.3,6.3,29,0.00,,---,0.00,VWS V14.01,2013-05-02 22:08:00,
2013-05-02 18:13:00,73.6,39.4,30.18,ESE,112,7.6,7.6,29,0.00,,---,0.00,VWS V14.01,2013-05-02 22:13:00,
2013-05-02 18:18:00,73.2,39.1,30.18,ENE,68,2.9,2.9,29,0.00,,---,0.00,VWS V14.01,2013-05-02 22:18:00,
2013-05-02 18:23:00,73.0,38.9,30.18,SSE,158,6.3,6.3,29,0.00,,---,0.00,VWS V14.01,2013-05-02 22:23:00,
2013-05-02 18:28:00,72.5,38.5,30.18,ESE,112,3.8,3.8,29,0.00,,---,0.00,VWS V14.01,2013-05-02 22:28:00,
2013-05-02 18:33:00,72.1,38.2,30.18,NE,45,6.9,6.9,29,0.00,,---,0.00,VWS V14.01,2013-05-02 22:33:00,
2013-05-02 18:38:00,72.0,38.0,30.18,East,90,6.0,8.1,29,0.00,,---,0.00,VWS V14.01,2013-05-02 22:38:00,
2013-05-02 18:43:00,71.6,37.7,30.18,ENE,68,5.8,5.8,29,0.00,,---,0.00,VWS V14.01,2013-05-02 22:43:00,
2013-05-02 18:48:00,71.6,37.7,30.18,ESE,112,7.6,9.6,29,0.00,,---,0.00,VWS V14.01,2013-05-02 22:48:00,
2013-05-02 18:53:00,71.4,38.4,30.18,SSE,158,8.5,8.5,30,0.00,,---,0.00,VWS V14.01,2013-05-02 22:53:00,
2013-05-02 18:58:00,71.2,38.2,30.18,ENE,68,5.6,5.6,30,0.00,,---,0.00,VWS V14.01,2013-05-02 22:58:00,
2013-05-02 19:03:00,70.9,37.9,30.18,SE,135,4.0,7.8,30,0.00,,---,0.00,VWS V14.01,2013-05-02 23:03:00,
2013-05-02 19:08:00,70.7,37.8,30.18,ENE,68,3.8,3.8,30,0.00,,---,0.00,VWS V14.01,2013-05-02 23:08:00,
2013-05-02 19:13:00,70.3,38.3,30.15,SSE,158,2.9,6.9,31,0.00,,---,0.00,VWS V14.01,2013-05-02 23:13:00,
2013-05-02 19:17:00,70.2,38.1,30.15,SSE,158,8.5,8.5,31,0.00,,---,0.00,VWS V14.01,2013-05-02 23:17:00,
2013-05-02 19:22:00,70.2,39.0,30.15,South,180,5.8,5.8,32,0.00,,---,0.00,VWS V14.01,2013-05-02 23:22:00,
2013-05-02 19:27:00,69.8,38.6,30.18,SSW,202,2.5,4.0,32,0.00,,---,0.00,VWS V14.01,2013-05-02 23:27:00,
2013-05-02 19:32:00,69.6,38.5,30.18,ESE,112,4.3,4.3,32,0.00,,---,0.00,VWS V14.01,2013-05-02 23:32:00,
2013-05-02 19:37:00,69.4,38.3,30.18,ESE,112,6.3,6.3,32,0.00,,---,0.00,VWS V14.01,2013-05-02 23:37:00,
2013-05-02 19:42:00,69.3,38.2,30.15,SSE,158,6.0,6.0,32,0.00,,---,0.00,VWS V14.01,2013-05-02 23:42:00,
2013-05-02 19:47:00,69.1,38.0,30.15,ENE,68,4.3,6.0,32,0.00,,---,0.00,VWS V14.01,2013-05-02 23:47:00,
2013-05-02 19:52:00,68.7,37.7,30.15,SE,135,1.6,3.1,32,0.00,,---,0.00,VWS V14.01,2013-05-02 23:52:00,
2013-05-02 19:57:00,68.5,37.5,30.15,ESE,112,3.1,3.1,32,0.00,,---,0.00,VWS V14.01,2013-05-02 23:57:00,
2013-05-02 20:02:00,68.4,37.4,30.15,SE,135,6.0,6.0,32,0.00,,---,0.00,VWS V14.01,2013-05-03 00:02:00,
2013-05-02 20:07:00,68.0,37.8,30.15,SSW,202,2.5,2.5,33,0.00,,---,0.00,VWS V14.01,2013-05-03 00:07:00,
2013-05-02 20:12:00,67.8,37.7,30.18,ESE,112,7.2,7.2,33,0.00,,---,0.00,VWS V14.01,2013-05-03 00:12:00,
2013-05-02 20:17:00,67.5,37.4,30.18,East,90,2.7,2.9,33,0.00,,---,0.00,VWS V14.01,2013-05-03 00:17:00,
2013-05-02 20:22:00,67.3,37.2,30.18,ESE,112,4.9,6.3,33,0.00,,---,0.00,VWS V14.01,2013-05-03 00:22:00,
2013-05-02 20:27:00,67.1,37.1,30.18,ESE,112,5.8,6.5,33,0.00,,---,0.00,VWS V14.01,2013-05-03 00:27:00,
2013-05-02 20:32:00,66.7,37.5,30.18,ESE,112,3.1,4.0,34,0.00,,---,0.00,VWS V14.01,2013-05-03 00:32:00,
2013-05-02 20:37:00,66.4,37.2,30.18,ESE,112,5.4,5.4,34,0.00,,---,0.00,VWS V14.01,2013-05-03 00:37:00,
2013-05-02 20:42:00,66.2,37.0,30.18,NE,45,3.8,4.3,34,0.00,,---,0.00,VWS V14.01,2013-05-03 00:42:00,
2013-05-02 20:47:00,66.0,36.9,30.18,SSE,158,2.7,6.3,34,0.00,,---,0.00,VWS V14.01,2013-05-03 00:47:00,
2013-05-02 20:52:00,65.7,36.6,30.18,ESE,112,4.9,8.5,34,0.00,,---,0.00,VWS V14.01,2013-05-03 00:52:00,
2013-05-02 20:57:00,65.5,36.4,30.18,ENE,68,3.1,4.9,34,0.00,,---,0.00,VWS V14.01,2013-05-03 00:57:00,
2013-05-02 21:02:00,65.1,36.1,30.18,ESE,112,3.6,4.9,34,0.00,,---,0.00,VWS V14.01,2013-05-03 01:02:00,
2013-05-02 21:07:00,65.1,36.1,30.18,SSW,202,5.6,5.6,34,0.00,,---,0.00,VWS V14.01,2013-05-03 01:07:00,
2013-05-02 21:12:00,64.8,36.5,30.15,SE,135,3.1,3.6,35,0.00,,---,0.00,VWS V14.01,2013-05-03 01:12:00,
2013-05-02 21:17:00,64.4,36.2,30.15,ESE,112,4.9,6.5,35,0.00,,---,0.00,VWS V14.01,2013-05-03 01:17:00,
2013-05-02 21:22:00,64.4,36.2,30.15,SE,135,2.9,3.8,35,0.00,,---,0.00,VWS V14.01,2013-05-03 01:22:00,
2013-05-02 21:27:00,64.0,35.9,30.18,SSE,158,3.4,3.4,35,0.00,,---,0.00,VWS V14.01,2013-05-03 01:27:00,
2013-05-02 21:32:00,63.9,36.4,30.18,SE,135,3.8,3.8,36,0.00,,---,0.00,VWS V14.01,2013-05-03 01:32:00,
2013-05-02 21:37:00,63.5,36.1,30.18,ESE,112,2.5,3.6,36,0.00,,---,0.00,VWS V14.01,2013-05-03 01:37:00,
2013-05-02 21:42:00,63.5,36.1,30.18,ESE,112,2.9,3.8,36,0.00,,---,0.00,VWS V14.01,2013-05-03 01:42:00,
2013-05-02 21:47:00,63.1,35.8,30.18,ENE,68,3.6,3.6,36,0.00,,---,0.00,VWS V14.01,2013-05-03 01:47:00,
2013-05-02 21:52:00,63.1,35.8,30.18,SSE,158,3.6,3.6,36,0.00,,---,0.00,VWS V14.01,2013-05-03 01:52:00,
2013-05-02 21:57:00,63.1,35.8,30.18,ESE,112,2.0,3.6,36,0.00,,---,0.00,VWS V14.01,2013-05-03 01:57:00,
2013-05-02 22:02:00,63.1,35.8,30.18,ENE,68,4.7,4.7,36,0.00,,---,0.00,VWS V14.01,2013-05-03 02:02:00,
2013-05-02 22:07:00,63.1,35.8,30.18,ENE,68,2.0,3.8,36,0.00,,---,0.00,VWS V14.01,2013-05-03 02:07:00,
2013-05-02 22:12:00,63.0,35.6,30.18,ENE,68,2.0,2.7,36,0.00,,---,0.00,VWS V14.01,2013-05-03 02:12:00,
2013-05-02 22:17:00,62.6,35.3,30.18,ESE,112,7.4,7.4,36,0.00,,---,0.00,VWS V14.01,2013-05-03 02:17:00,
2013-05-02 22:22:00,62.6,36.0,30.18,ENE,68,4.3,4.5,37,0.00,,---,0.00,VWS V14.01,2013-05-03 02:22:00,
2013-05-02 22:27:00,62.6,36.0,30.18,NE,45,2.5,2.5,37,0.00,,---,0.00,VWS V14.01,2013-05-03 02:27:00,
2013-05-02 22:32:00,62.4,35.8,30.18,ENE,68,2.5,4.7,37,0.00,,---,0.00,VWS V14.01,2013-05-03 02:32:00,
2013-05-02 22:37:00,62.1,36.2,30.18,ENE,68,3.1,3.4,38,0.00,,---,0.00,VWS V14.01,2013-05-03 02:37:00,
2013-05-02 22:42:00,62.1,36.2,30.18,ENE,68,3.6,3.8,38,0.00,,---,0.00,VWS V14.01,2013-05-03 02:42:00,
2013-05-02 22:47:00,61.9,36.0,30.18,ENE,68,3.1,4.9,38,0.00,,---,0.00,VWS V14.01,2013-05-03 02:47:00,
2013-05-02 22:52:00,61.7,35.9,30.18,ENE,68,5.8,5.8,38,0.00,,---,0.00,VWS V14.01,2013-05-03 02:52:00,
2013-05-02 22:57:00,61.5,36.3,30.21,ESE,112,4.0,4.3,39,0.00,,---,0.00,VWS V14.01,2013-05-03 02:57:00,
2013-05-02 23:02:00,61.5,36.3,30.21,ENE,68,3.8,4.0,39,0.00,,---,0.00,VWS V14.01,2013-05-03 03:02:00,
2013-05-02 23:07:00,61.3,35.5,30.21,ENE,68,5.6,5.6,38,0.00,,---,0.00,VWS V14.01,2013-05-03 03:07:00,
2013-05-02 23:12:00,61.3,35.5,30.21,ENE,68,6.9,6.9,38,0.00,,---,0.00,VWS V14.01,2013-05-03 03:12:00,
2013-05-02 23:17:00,61.2,35.4,30.21,NE,45,3.1,3.1,38,0.00,,---,0.00,VWS V14.01,2013-05-03 03:17:00,
2013-05-02 23:22:00,61.2,34.7,30.21,SSE,158,1.6,1.6,37,0.00,,---,0.00,VWS V14.01,2013-05-03 03:22:00,
2013-05-02 23:27:00,61.0,34.5,30.21,NE,45,1.3,1.3,37,0.00,,---,0.00,VWS V14.01,2013-05-03 03:27:00,
2013-05-02 23:32:00,60.8,34.4,30.21,NE,45,3.1,3.1,37,0.00,,---,0.00,VWS V14.01,2013-05-03 03:32:00,
2013-05-02 23:37:00,60.6,34.2,30.21,ENE,68,3.8,3.8,37,0.00,,---,0.00,VWS V14.01,2013-05-03 03:37:00,
2013-05-02 23:42:00,60.6,34.2,30.21,ENE,68,3.8,3.8,37,0.00,,---,0.00,VWS V14.01,2013-05-03 03:42:00,
2013-05-02 23:47:00,60.4,34.1,30.21,NNW,338,2.7,2.7,37,0.00,,---,0.00,VWS V14.01,2013-05-03 03:47:00,
2013-05-02 23:52:00,60.3,33.2,30.21,ENE,68,3.4,3.4,36,0.00,,---,0.00,VWS V14.01,2013-05-03 03:52:00,
2013-05-02 23:57:00,60.1,33.1,30.21,East,90,3.8,3.8,36,0.00,,---,0.00,VWS V14.01,2013-05-03 03:57:00,